Latest Weather Observations for Williamson

IDQ60801

Issued at 7:32 pm EST Friday 26 February 2021 (issued every 10 minutes, with the page automatically refreshed every 10 minutes)

About weather observations | Map of weather stations | Latest weather observations for QLD | Other Formats
Station Details ID: 033195 Name: WILLIAMSON Lat: -22.47 Lon: 150.18 Height: 27.6 m
Data from the previous 72 hours. | See also: Recent months at Williamson
Date/Time
EST
Temp
°C
App
Temp
°C
Dew
Point
°C
Rel
Hum
%
Delta-T
°C
Wind Press
QNH
hPa
Press
MSL
hPa
Rain since
9am
mm
Dir  Spd
km/h
Gust
km/h
Spd
kts
Gust
kts
26/07:30pm 27.3 29.4 20.9 68 4.2 E 11 17 6 9 1009.2 1009.0 0.0
26/07:00pm 27.4 29.3 21.4 70 4.0 E 13 22 7 12 1008.9 1008.7 0.0
26/06:30pm 27.8 29.2 21.1 67 4.5 E 15 22 8 12 1008.6 1008.4 0.0
26/06:00pm 28.2 29.7 20.5 63 5.1 E 13 20 7 11 1008.1 1007.9 0.0
26/05:30pm 28.5 29.6 20.5 62 5.3 E 15 24 8 13 1007.8 1007.6 0.0
26/05:00pm 28.9 30.0 20.4 60 5.6 ENE 15 32 8 17 1007.5 1007.3 0.0
26/04:30pm 29.5 30.4 20.1 57 6.2 E 15 24 8 13 1007.2 1007.0 0.0
26/04:00pm 30.2 31.6 20.4 55 6.5 ENE 13 22 7 12 1007.2 1007.0 0.0
26/03:30pm 30.2 30.8 20.2 55 6.6 ENE 17 26 9 14 1007.2 1007.0 0.0
26/03:00pm 30.1 31.0 20.1 55 6.6 ENE 15 22 8 12 1007.2 1007.0 0.0
26/02:30pm 30.4 30.9 20.0 53 6.9 ENE 17 26 9 14 1007.3 1007.1 0.0
26/02:00pm 31.0 30.9 20.0 52 7.3 ENE 20 35 11 19 1007.4 1007.2 0.0
26/01:30pm 30.7 30.2 19.1 50 7.6 ENE 20 33 11 18 1007.6 1007.4 0.0
26/01:00pm 31.5 31.8 19.5 49 7.9 ENE 17 26 9 14 1007.8 1007.6 0.0
26/12:30pm 32.1 31.6 17.9 42 9.1 E 17 28 9 15 1008.1 1007.9 0.0
26/12:00pm 31.1 30.5 18.8 48 8.0 ENE 20 33 11 18 1008.6 1008.4 0.0
26/11:30am 31.6 31.2 18.9 47 8.3 ENE 19 33 10 18 1008.9 1008.7 0.0
26/11:00am 31.0 31.0 19.0 48 7.8 E 17 28 9 15 1009.2 1009.0 0.0
26/10:30am 29.8 30.3 20.1 56 6.4 ENE 17 28 9 15 1009.3 1009.1 0.0
26/10:00am 29.7 29.9 19.4 54 6.7 E 17 30 9 16 1009.2 1009.0 0.0
26/09:30am 30.0 31.3 20.8 57 6.1 E 15 24 8 13 1009.2 1009.0 0.0
26/09:00am 28.6 30.0 21.1 64 5.0 E 15 24 8 13 1009.5 1009.3 0.0
26/08:30am 27.9 29.3 21.0 66 4.6 E 15 24 8 13 1009.2 1009.0 0.0
26/08:00am 28.2 30.6 22.2 70 4.1 E 13 20 7 11 1009.1 1008.9 0.0
26/07:30am 27.8 30.1 22.1 71 3.8 E 13 28 7 15 1008.9 1008.7 0.0
26/07:00am 27.1 29.9 22.3 75 3.2 E 11 19 6 10 1008.6 1008.4 0.0
26/06:30am 26.1 29.4 22.6 81 2.4 ESE 9 15 5 8 1008.5 1008.3 0.0
26/06:00am 24.8 29.3 23.0 90 1.2 ESE 4 7 2 4 1008.3 1008.1 0.0
26/05:30am 24.1 28.3 23.2 95 0.6 SE 6 7 3 4 1008.0 1007.8 0.0
26/05:00am 23.5 28.5 22.5 94 0.7 CALM 0 0 0 0 1007.8 1007.6 0.0
26/04:30am 23.7 28.4 22.7 94 0.7 ESE 2 7 1 4 1007.8 1007.6 0.0
26/04:00am 23.6 28.5 22.4 93 0.8 CALM 0 0 0 0 1007.6 1007.4 0.0
26/03:30am 23.7 28.4 22.0 90 1.1 CALM 0 0 0 0 1007.6 1007.4 0.0
26/03:00am 24.3 29.0 22.0 87 1.5 CALM 0 0 0 0 1007.8 1007.6 0.0
26/02:30am 25.0 29.5 22.3 85 1.8 SE 2 6 1 3 1008.0 1007.8 0.0
26/02:00am 25.0 29.4 22.1 84 1.9 NE 2 6 1 3 1008.2 1008.0 0.0
26/01:30am 25.5 29.6 22.2 82 2.2 E 4 9 2 5 1008.6 1008.4 0.0
26/01:00am 25.7 29.4 22.2 81 2.4 E 6 11 3 6 1009.0 1008.8 0.0
26/12:30am 26.0 29.2 22.3 80 2.5 E 9 15 5 8 1009.3 1009.1 0.0
26/12:00am 26.1 29.8 22.6 81 2.4 E 7 13 4 7 1009.8 1009.6 0.0
 
Date/Time
EST
Temp
°C
App
Temp
°C
Dew
Point
°C
Rel
Hum
%
Delta-T
°C
Wind Press
QNH
hPa
Press
MSL
hPa
Rain since
9am
mm
Dir  Spd
km/h
Gust
km/h
Spd
kts
Gust
kts
25/11:30pm 26.0 29.6 22.3 80 2.5 ESE 7 11 4 6 1009.9 1009.7 0.0
25/11:00pm 26.1 29.7 22.4 80 2.5 ESE 7 15 4 8 1010.0 1009.8 0.0
25/10:30pm 26.3 30.1 22.4 79 2.6 E 6 11 3 6 1010.1 1009.9 0.0
25/10:00pm 26.3 30.5 22.4 79 2.6 ESE 4 9 2 5 1010.2 1010.0 0.0
25/09:30pm 26.3 29.4 22.2 78 2.8 ESE 9 15 5 8 1009.9 1009.7 0.0
25/09:00pm 26.3 29.2 21.7 76 3.1 E 9 15 5 8 1009.7 1009.5 0.0
25/08:30pm 26.6 29.1 21.8 75 3.2 E 11 19 6 10 1009.5 1009.3 0.0
25/08:00pm 26.7 29.5 21.5 73 3.5 E 9 17 5 9 1009.1 1008.9 0.0
25/07:30pm 26.8 29.3 21.1 71 3.8 E 9 15 5 8 1008.8 1008.6 0.0
25/07:00pm 27.1 29.1 20.7 68 4.2 E 11 20 6 11 1008.6 1008.4 0.0
25/06:30pm 27.4 28.0 20.2 65 4.7 E 17 32 9 17 1008.3 1008.1 0.0
25/06:00pm 27.9 28.1 20.5 64 4.9 E 20 35 11 19 1007.9 1007.7 0.0
25/05:30pm 28.4 28.3 20.7 63 5.1 ENE 22 35 12 19 1007.5 1007.3 0.0
25/05:00pm 29.1 29.7 21.3 62 5.2 E 20 33 11 18 1007.5 1007.3 0.0
25/04:30pm 29.5 29.4 21.4 61 5.4 ENE 24 39 13 21 1007.3 1007.1 0.0
25/04:00pm 29.5 29.6 21.2 61 5.6 ENE 22 37 12 20 1007.1 1006.9 0.0
25/03:30pm 30.8 31.2 21.0 56 6.6 ENE 20 35 11 19 1007.3 1007.1 0.0
25/03:00pm 31.5 32.0 21.1 54 7.0 ENE 20 35 11 19 1007.5 1007.3 0.0
25/02:30pm 31.9 31.9 20.2 50 7.8 ENE 20 35 11 19 1007.7 1007.5 0.0
25/02:00pm 32.2 32.2 19.8 48 8.2 NE 19 30 10 16 1008.0 1007.8 0.0
25/01:30pm 32.4 32.0 18.9 44 8.8 ENE 19 32 10 17 1008.2 1008.0 0.0
25/01:00pm 31.7 31.5 19.3 47 8.1 ENE 19 32 10 17 1008.6 1008.4 0.0
25/12:30pm 32.0 32.5 19.3 47 8.3 E 15 24 8 13 1009.0 1008.8 0.0
25/12:00pm 32.1 32.1 19.0 45 8.6 ENE 17 24 9 13 1009.5 1009.3 0.0
25/11:30am 32.1 33.6 19.7 48 8.2 E 11 22 6 12 1010.0 1009.8 0.0
25/11:00am 30.9 31.9 20.2 53 7.1 ENE 15 28 8 15 1010.4 1010.2 0.0
25/10:30am 30.8 32.0 19.8 52 7.2 E 13 20 7 11 1010.8 1010.6 0.0
25/10:00am 30.5 31.1 19.5 51 7.2 NE 15 24 8 13 1011.0 1010.8 0.0
25/09:30am 30.1 31.0 20.1 55 6.6 ENE 15 22 8 12 1010.8 1010.6 0.0
25/09:00am 30.0 31.0 21.1 59 6.0 ENE 17 26 9 14 1010.8 1010.6 0.0
25/08:30am 29.1 31.5 21.6 64 5.0 E 11 20 6 11 1010.5 1010.3 0.0
25/08:00am 28.5 30.8 22.0 68 4.4 E 13 26 7 14 1010.2 1010.0 0.0
25/07:30am 27.8 30.7 22.5 73 3.6 E 11 19 6 10 1009.6 1009.4 0.0
25/07:00am 27.1 30.9 22.7 77 3.0 E 7 13 4 7 1009.4 1009.2 0.0
25/06:30am 25.4 30.1 22.7 85 1.8 ESE 2 6 1 3 1009.2 1009.0 0.0
25/06:00am 25.1 29.0 22.6 86 1.7 ESE 6 13 3 7 1009.1 1008.9 0.0
25/05:30am 24.7 29.0 22.6 88 1.4 ESE 4 9 2 5 1009.0 1008.8 0.0
25/05:00am 25.1 29.1 22.8 87 1.6 NE 6 7 3 4 1008.6 1008.4 0.0
25/04:30am 25.6 29.4 22.7 84 2.0 E 7 11 4 6 1008.2 1008.0 0.0
25/04:00am 26.1 29.0 22.4 80 2.5 ESE 11 20 6 11 1008.2 1008.0 0.0
25/03:30am 25.9 29.1 22.4 81 2.4 E 9 13 5 7 1008.2 1008.0 0.0
25/03:00am 26.0 29.3 22.5 81 2.4 E 9 13 5 7 1008.2 1008.0 0.0
25/02:30am 26.2 29.1 22.5 80 2.5 ESE 11 19 6 10 1008.2 1008.0 0.0
25/02:00am 26.2 29.9 22.5 80 2.5 E 7 11 4 6 1008.7 1008.5 0.0
25/01:30am 26.5 29.7 22.3 78 2.8 E 9 19 5 10 1009.2 1009.0 0.0
25/01:00am 26.6 29.3 22.2 77 3.0 E 11 20 6 11 1009.7 1009.5 0.0
25/12:30am 26.6 30.2 22.4 78 2.8 E 7 15 4 8 1009.9 1009.7 0.0
25/12:00am 26.9 29.8 22.5 77 3.0 E 11 19 6 10 1010.1 1009.9 0.0
 
Date/Time
EST
Temp
°C
App
Temp
°C
Dew
Point
°C
Rel
Hum
%
Delta-T
°C
Wind Press
QNH
hPa
Press
MSL
hPa
Rain since
9am
mm
Dir  Spd
km/h
Gust
km/h
Spd
kts
Gust
kts
24/11:30pm 26.8 29.8 22.6 78 2.8 E 11 19 6 10 1010.1 1009.9 0.0
24/11:00pm 26.7 30.2 22.8 79 2.6 E 9 19 5 10 1010.3 1010.1 0.0
24/10:30pm 26.5 30.2 22.6 79 2.6 E 7 13 4 7 1010.5 1010.3 0.0
24/10:00pm 26.7 29.9 22.3 77 3.0 E 9 17 5 9 1010.2 1010.0 0.0
24/09:30pm 26.8 29.4 22.0 75 3.2 E 11 19 6 10 1010.2 1010.0 0.0
24/09:00pm 26.9 29.7 22.3 76 3.1 E 11 20 6 11 1010.2 1010.0 0.0
24/08:30pm 27.0 29.7 22.2 75 3.2 E 11 19 6 10 1010.1 1009.9 0.0
24/08:00pm 27.2 30.3 22.2 74 3.4 ESE 9 15 5 8 1010.1 1009.9 0.0
24/07:30pm 27.2 30.2 21.9 73 3.6 E 9 17 5 9 1009.8 1009.6 0.0
24/07:00pm 27.5 29.5 21.5 70 4.0 E 13 19 7 10 1009.4 1009.2 0.0
24/06:30pm 28.0 29.2 21.5 67 4.3 E 17 30 9 16 1008.9 1008.7 0.0
24/06:00pm 29.1 30.4 20.8 61 5.5 ENE 15 26 8 14 1008.6 1008.4 0.0
24/05:30pm 29.8 31.4 21.5 61 5.6 ENE 15 28 8 15 1008.2 1008.0 0.0
24/05:00pm 30.7 32.0 20.9 56 6.6 E 15 24 8 13 1008.1 1007.9 0.0
24/04:30pm 31.4 32.4 21.0 54 7.0 E 17 26 9 14 1007.7 1007.5 0.0
24/04:00pm 31.5 31.9 19.8 49 7.7 E 17 28 9 15 1007.6 1007.4 0.0
24/03:30pm 31.9 32.1 20.2 50 7.8 E 19 39 10 21 1007.7 1007.5 0.0
24/03:00pm 32.4 32.7 20.3 48 8.1 ENE 19 30 10 16 1008.0 1007.8 0.0
24/02:30pm 32.6 33.0 19.8 46 8.5 NE 17 32 9 17 1008.0 1007.8 0.0
24/02:00pm 32.8 32.7 20.0 47 8.5 ENE 20 30 11 16 1008.6 1008.4 0.0
24/01:30pm 32.8 32.4 19.3 45 8.9 ENE 20 30 11 16 1008.6 1008.4 0.0
24/01:00pm 33.4 33.2 19.8 44 9.0 E 20 33 11 18 1009.3 1009.1 0.0
24/12:30pm 33.1 33.2 19.9 45 8.8 E 19 30 10 16 1009.6 1009.4 0.0
24/12:00pm 32.2 33.1 20.8 51 7.6 ENE 17 30 9 16 1009.7 1009.5 0.0
24/11:30am 32.9 33.2 19.7 45 8.7 NE 17 24 9 13 1010.0 1009.8 0.0
24/11:00am 32.3 32.6 19.5 46 8.4 ENE 17 28 9 15 1010.2 1010.0 0.0
24/10:30am 31.5 33.7 21.1 54 7.0 E 11 22 6 12 1010.6 1010.4 0.0
24/10:00am 31.1 32.5 20.4 53 7.1 E 13 20 7 11 1010.7 1010.5 0.0
24/09:30am 31.5 33.3 21.9 56 6.5 ENE 15 26 8 14 1010.7 1010.5 0.0
24/09:00am 29.6 32.7 22.1 64 5.1 E 9 17 5 9 1010.9 1010.7 0.0
24/08:30am 29.0 31.5 22.5 68 4.4 ESE 13 22 7 12 1010.9 1010.7 0.0
24/08:00am 28.3 31.1 22.3 70 4.1 E 11 22 6 12 1010.6 1010.4 0.0
24/07:30am 28.0 31.1 22.9 74 3.5 ESE 11 22 6 12 1010.3 1010.1 0.0
24/07:00am 26.6 31.4 24.1 86 1.7 SE 6 9 3 5 1010.1 1009.9 0.0
24/06:30am 23.9 29.1 23.6 98 0.2 S 2 7 1 4 1009.9 1009.7 0.0
24/06:00am 22.9 28.0 22.6 98 0.2 CALM 0 0 0 0 1009.4 1009.2 0.0
24/05:30am 23.0 28.1 22.7 98 0.2 CALM 0 2 0 1 1009.0 1008.8 0.0
24/05:00am 23.1 28.3 22.8 98 0.2 CALM 0 0 0 0 1008.8 1008.6 0.0
24/04:30am 23.5 28.9 23.2 98 0.2 CALM 0 0 0 0 1008.7 1008.5 0.0
24/04:00am 23.8 29.1 23.1 96 0.5 CALM 0 0 0 0 1008.5 1008.3 0.0
24/03:30am 24.3 29.7 23.3 94 0.7 CALM 0 6 0 3 1008.4 1008.2 0.0
24/03:00am 24.8 30.3 23.4 92 1.0 CALM 0 6 0 3 1008.7 1008.5 0.0
24/02:30am 25.1 30.4 23.7 92 1.0 SSE 2 6 1 3 1008.9 1008.7 0.0
24/02:00am 25.1 29.6 23.7 92 1.0 SSE 6 9 3 5 1009.0 1008.8 0.0
24/01:30am 24.9 28.9 23.7 93 0.8 SSE 9 15 5 8 1008.9 1008.7 0.0
24/01:00am 24.5 28.3 22.8 90 1.1 SE 7 13 4 7 1009.2 1009.0 0.0
24/12:30am 24.7 27.7 22.0 85 1.8 SSE 9 13 5 7 1009.4 1009.2 0.0
24/12:00am 25.3 29.4 23.2 88 1.4 ESE 7 9 4 5 1009.5 1009.3 0.0
 
Date/Time
EST
Temp
°C
App
Temp
°C
Dew
Point
°C
Rel
Hum
%
Delta-T
°C
Wind Press
QNH
hPa
Press
MSL
hPa
Rain since
9am
mm
Dir  Spd
km/h
Gust
km/h
Spd
kts
Gust
kts
23/11:30pm 25.9 30.9 25.4 97 0.4 SSW 9 13 5 7 1009.6 1009.4 0.0
23/11:00pm 26.2 31.8 24.8 92 1.0 N 4 7 2 4 1009.0 1008.8 0.0
23/10:30pm 26.8 33.1 24.8 89 1.4 CALM 0 0 0 0 1008.8 1008.6 0.0
23/10:00pm 27.0 32.1 25.0 89 1.4 NE 7 15 4 8 1008.5 1008.3 0.0
23/09:30pm 27.2 32.5 25.2 89 1.4 ENE 7 13 4 7 1008.3 1008.1 0.0
23/09:00pm 27.5 32.8 25.3 88 1.5 NE 7 13 4 7 1008.1 1007.9 0.0
23/08:30pm 27.7 32.8 25.5 88 1.5 NNE 9 20 5 11 1007.5 1007.3 0.0
23/08:00pm 27.6 32.6 25.4 88 1.5 NE 9 19 5 10 1006.6 1006.4 0.0

Other formats

Comma delimited format used in spreadsheet applications
http://www.bom.gov.au/fwo/IDQ60801/IDQ60801.95370.axf

JavaScript Object Notation format (JSON) in row-major order
http://www.bom.gov.au/fwo/IDQ60801/IDQ60801.95370.json

Data quality

Most of these data are generated automatically and are frequently updated. Quality checks on data are not normally performed. It is possible for incorrect values to appear. Refer to information at About Latest Weather Observations and please check the disclaimer before using these data.